createdAt,value
2019-02-20T00:02:08.230Z,72.83
2019-02-20T00:04:37.470Z,73.60
2019-02-20T00:07:04.207Z,73.63
2019-02-20T00:09:30.940Z,73.59
2019-02-20T00:11:57.991Z,73.53
2019-02-20T00:14:24.700Z,73.44
2019-02-20T00:16:51.730Z,73.45
2019-02-20T00:19:20.319Z,73.12
2019-02-20T00:21:47.275Z,73.59
2019-02-20T00:24:13.983Z,73.63
2019-02-20T00:26:40.718Z,73.69
2019-02-20T00:29:09.909Z,73.66
2019-02-20T00:31:36.630Z,73.77
2019-02-20T00:34:03.364Z,73.22
2019-02-20T00:36:30.066Z,74.18
2019-02-20T00:38:56.838Z,74.18
2019-02-20T00:41:23.586Z,74.86
2019-02-20T00:44:09.226Z,76.20
2019-02-20T00:46:43.582Z,75.85
2019-02-20T00:49:14.533Z,75.85
2019-02-20T00:51:50.850Z,75.67
2019-02-20T00:54:17.610Z,74.81
2019-02-20T00:56:44.772Z,75.41
2019-02-20T00:59:11.534Z,74.39
2019-02-20T01:01:38.257Z,74.86
2019-02-20T01:04:05.186Z,75.17
2019-02-20T01:06:31.896Z,75.39
2019-02-20T01:08:58.626Z,74.86
2019-02-20T01:11:25.490Z,75.34
2019-02-20T01:13:52.259Z,75.34
2019-02-20T01:16:19.001Z,75.45
2019-02-20T01:18:45.753Z,75.60
2019-02-20T01:21:12.830Z,75.19
2019-02-20T01:23:39.898Z,74.30
2019-02-20T01:26:07.102Z,74.18
2019-02-20T01:28:36.041Z,74.07
2019-02-20T01:31:02.824Z,75.70
2019-02-20T01:33:29.836Z,75.70
2019-02-20T01:35:56.569Z,75.54
2019-02-20T01:38:23.305Z,75.31
2019-02-20T01:40:50.054Z,74.71
2019-02-20T01:43:16.783Z,74.64
2019-02-20T01:45:43.854Z,75.24
2019-02-20T01:48:10.596Z,74.92
2019-02-20T01:50:37.340Z,74.40
2019-02-20T01:53:10.243Z,75.27
2019-02-20T01:55:32.689Z,75.35
2019-02-20T01:57:59.688Z,74.85
2019-02-20T02:00:26.447Z,75.09
2019-02-20T02:02:56.627Z,75.25
2019-02-20T02:05:23.716Z,74.79
2019-02-20T02:07:50.447Z,74.17
2019-02-20T02:10:17.195Z,74.62
2019-02-20T02:12:43.950Z,73.87
2019-02-20T02:15:20.047Z,74.03
2019-02-20T02:17:39.290Z,74.45
2019-02-20T02:20:06.629Z,74.21
2019-02-20T02:22:35.723Z,74.62
2019-02-20T02:25:02.553Z,74.40
2019-02-20T02:27:29.267Z,75.40
2019-02-20T02:29:56.278Z,74.97
2019-02-20T02:32:23.020Z,74.92
2019-02-20T02:34:49.803Z,74.60
2019-02-20T02:37:16.537Z,74.47
2019-02-20T02:39:43.853Z,74.02
2019-02-20T02:42:10.607Z,73.59
2019-02-20T02:44:37.329Z,74.08
2019-02-20T02:47:07.958Z,73.76
2019-02-20T02:49:34.664Z,74.27
2019-02-20T02:52:01.391Z,73.97
2019-02-20T02:54:29.259Z,74.07
2019-02-20T02:56:57.199Z,74.40
2019-02-20T02:59:24.350Z,74.77
2019-02-20T03:01:51.065Z,74.77
2019-02-20T03:04:17.782Z,74.09
2019-02-20T03:06:45.371Z,74.75
2019-02-20T03:09:12.091Z,74.49
2019-02-20T03:11:38.817Z,74.40
2019-02-20T03:14:05.859Z,75.02
2019-02-20T03:16:32.563Z,74.32
2019-02-20T03:18:59.320Z,74.80
2019-02-20T03:21:26.015Z,74.99
2019-02-20T03:23:52.739Z,75.74
2019-02-20T03:26:19.860Z,76.19
2019-02-20T03:28:46.578Z,75.58
2019-02-20T03:31:13.510Z,75.54
2019-02-20T03:33:40.567Z,75.20
2019-02-20T03:36:07.297Z,74.65
2019-02-20T03:38:34.025Z,74.49
2019-02-20T03:41:00.750Z,74.48
2019-02-20T03:43:27.465Z,74.38
2019-02-20T03:45:54.194Z,74.39
2019-02-20T03:48:21.000Z,74.21
2019-02-20T03:50:47.718Z,74.14
2019-02-20T03:53:18.651Z,74.01
2019-02-20T03:55:51.286Z,74.90
2019-02-20T03:58:18.032Z,74.51
2019-02-20T04:00:44.764Z,74.15
2019-02-20T04:03:14.631Z,74.64
2019-02-20T04:05:41.346Z,74.19
2019-02-20T04:08:08.067Z,74.43
2019-02-20T04:10:34.779Z,74.49
2019-02-20T04:13:01.530Z,74.73
2019-02-20T04:15:28.229Z,74.45
2019-02-20T04:17:54.949Z,74.41
2019-02-20T04:20:21.688Z,74.19
2019-02-20T04:22:48.401Z,74.35
2019-02-20T04:25:15.353Z,73.88
2019-02-20T04:27:42.474Z,74.20
2019-02-20T04:30:09.202Z,74.68
2019-02-20T04:32:35.950Z,74.23
2019-02-20T04:35:04.471Z,73.97
2019-02-20T04:37:31.203Z,74.15
2019-02-20T04:39:57.923Z,73.68
2019-02-20T04:42:26.690Z,74.01
2019-02-20T04:44:53.388Z,74.01
2019-02-20T04:47:20.139Z,73.82
2019-02-20T04:49:46.859Z,73.82
2019-02-20T04:52:13.602Z,73.86
2019-02-20T04:54:40.351Z,74.56
2019-02-20T04:57:07.081Z,74.91
2019-02-20T04:59:34.190Z,75.07
2019-02-20T05:02:00.920Z,75.30
2019-02-20T05:04:27.999Z,75.00
2019-02-20T05:06:54.774Z,74.86
2019-02-20T05:09:24.096Z,74.38
2019-02-20T05:11:50.824Z,73.81
2019-02-20T05:14:17.549Z,73.67
2019-02-20T05:16:44.263Z,74.19
2019-02-20T05:19:10.971Z,74.32
2019-02-20T05:21:37.740Z,73.93
2019-02-20T05:24:04.484Z,74.18
2019-02-20T05:26:31.941Z,74.22
2019-02-20T05:28:58.658Z,73.84
2019-02-20T05:31:25.365Z,73.69
2019-02-20T05:33:52.108Z,73.73
2019-02-20T05:36:18.910Z,73.88
2019-02-20T05:38:45.618Z,73.46
2019-02-20T05:41:12.377Z,73.08
2019-02-20T05:43:39.103Z,72.87
2019-02-20T05:46:06.156Z,72.83
2019-02-20T05:48:32.855Z,73.97
2019-02-20T05:50:59.582Z,73.61
2019-02-20T05:53:26.925Z,74.09
2019-02-20T05:55:56.150Z,73.36
2019-02-20T05:58:23.352Z,73.79
2019-02-20T06:00:50.099Z,73.00
2019-02-20T06:03:16.898Z,73.08
2019-02-20T06:05:45.659Z,73.33
2019-02-20T06:08:12.392Z,73.29
2019-02-20T06:10:40.321Z,73.46
2019-02-20T06:13:10.184Z,73.25
2019-02-20T06:15:43.042Z,73.07
2019-02-20T06:18:09.457Z,73.02
2019-02-20T06:20:36.213Z,73.29
2019-02-20T06:23:03.151Z,73.61
2019-02-20T06:25:30.201Z,73.47
2019-02-20T06:27:56.939Z,73.57
2019-02-20T06:30:23.655Z,73.71
2019-02-20T06:32:50.437Z,73.32
2019-02-20T06:35:20.501Z,73.71
2019-02-20T06:37:47.269Z,73.51
2019-02-20T06:40:14.688Z,73.36
2019-02-20T06:42:41.456Z,73.47
2019-02-20T06:45:08.341Z,73.34
2019-02-20T06:47:35.080Z,73.53
2019-02-20T06:50:02.419Z,73.63
2019-02-20T06:52:29.145Z,74.58
2019-02-20T06:54:55.992Z,73.78
2019-02-20T06:57:22.714Z,73.80
2019-02-20T06:59:49.428Z,74.17
2019-02-20T07:02:16.616Z,73.79
2019-02-20T07:05:24.802Z,73.52
2019-02-20T07:08:40.258Z,73.53
2019-02-20T07:11:31.334Z,73.10
2019-02-20T07:15:05.139Z,73.79
2019-02-20T07:18:03.652Z,73.32
2019-02-20T07:21:21.595Z,73.15
2019-02-20T07:24:18.793Z,73.14
2019-02-20T07:27:18.356Z,73.19
2019-02-20T07:30:01.813Z,73.42
2019-02-20T07:32:29.226Z,73.42
2019-02-20T07:34:55.938Z,73.59
2019-02-20T07:37:22.660Z,72.59
2019-02-20T07:39:49.365Z,73.04
2019-02-20T07:42:16.434Z,73.06
2019-02-20T07:44:43.176Z,72.92
2019-02-20T07:47:09.989Z,72.98
2019-02-20T07:49:36.836Z,72.87
2019-02-20T07:52:03.567Z,72.90
2019-02-20T07:54:32.772Z,72.81
2019-02-20T07:57:00.055Z,72.75
2019-02-20T07:59:26.858Z,71.95
2019-02-20T08:01:55.838Z,72.23
2019-02-20T08:04:22.572Z,72.19
2019-02-20T08:06:49.628Z,71.71
2019-02-20T08:09:16.693Z,70.87
2019-02-20T08:11:43.407Z,70.91
2019-02-20T08:14:10.132Z,70.94
2019-02-20T08:16:38.724Z,71.43
2019-02-20T08:19:05.482Z,72.03
2019-02-20T08:21:32.227Z,71.98
2019-02-20T08:23:58.970Z,71.37
2019-02-20T08:26:26.197Z,71.81
2019-02-20T08:28:52.944Z,72.28
2019-02-20T08:31:19.654Z,73.05
2019-02-20T08:33:46.597Z,72.64
2019-02-20T08:36:13.341Z,74.38
2019-02-20T08:38:42.811Z,75.77
2019-02-20T08:41:09.541Z,76.53
2019-02-20T08:43:36.316Z,76.07
2019-02-20T08:46:03.506Z,75.69
2019-02-20T08:48:30.219Z,74.87
2019-02-20T08:50:56.984Z,74.37
2019-02-20T08:53:24.033Z,73.67
2019-02-20T08:55:50.913Z,73.71
2019-02-20T08:58:17.649Z,73.32
2019-02-20T09:00:44.441Z,73.21
2019-02-20T09:03:11.225Z,73.53
2019-02-20T09:05:42.954Z,73.23
2019-02-20T09:08:09.713Z,71.90
2019-02-20T09:10:39.357Z,73.00
2019-02-20T09:13:06.086Z,72.45
2019-02-20T09:15:33.464Z,71.64
2019-02-20T09:18:00.191Z,71.49
2019-02-20T09:20:26.939Z,71.63
2019-02-20T09:22:53.726Z,71.04
2019-02-20T09:25:20.548Z,72.23
2019-02-20T09:27:47.611Z,72.08
2019-02-20T09:30:14.373Z,71.29
2019-02-20T09:32:41.316Z,70.37
2019-02-20T09:35:08.057Z,70.37
2019-02-20T09:37:34.785Z,69.43
2019-02-20T09:40:01.575Z,69.31
2019-02-20T09:42:28.268Z,69.18
2019-02-20T09:45:00.041Z,69.38
2019-02-20T09:47:26.735Z,69.12
2019-02-20T09:49:53.454Z,68.90
2019-02-20T09:52:20.175Z,68.41
2019-02-20T09:54:46.903Z,67.82
2019-02-20T09:57:14.394Z,67.82
2019-02-20T09:59:41.169Z,68.02
2019-02-20T10:02:07.934Z,67.53
2019-02-20T10:04:37.115Z,67.74
2019-02-20T10:07:03.889Z,67.74
2019-02-20T10:09:30.653Z,67.23
2019-02-20T10:11:57.509Z,68.16
2019-02-20T10:14:24.281Z,68.16
2019-02-20T10:16:55.551Z,67.29
2019-02-20T10:19:25.363Z,67.15
2019-02-20T10:21:52.108Z,67.19
2019-02-20T10:24:18.843Z,66.66
2019-02-20T10:26:46.785Z,66.17
2019-02-20T10:29:16.839Z,66.17
2019-02-20T10:31:43.553Z,65.88
2019-02-20T10:34:11.247Z,65.66
2019-02-20T10:36:38.140Z,65.34
2019-02-20T10:39:05.143Z,65.47
2019-02-20T10:41:31.885Z,65.56
2019-02-20T10:43:58.674Z,65.65
2019-02-20T10:46:28.202Z,66.04
2019-02-20T10:48:57.242Z,66.34
2019-02-20T10:51:23.983Z,66.24
2019-02-20T10:53:52.475Z,66.12
2019-02-20T10:56:19.209Z,66.07
2019-02-20T10:58:45.929Z,66.15
2019-02-20T11:01:12.684Z,67.05
2019-02-20T11:03:39.455Z,67.51
2019-02-20T11:06:06.832Z,67.93
2019-02-20T11:08:33.663Z,67.74
2019-02-20T11:11:00.410Z,67.72
2019-02-20T11:13:27.135Z,67.32
2019-02-20T11:15:53.974Z,67.51
2019-02-20T11:18:20.727Z,66.46
2019-02-20T11:20:48.715Z,65.99
2019-02-20T11:23:15.626Z,66.02
2019-02-20T11:25:46.067Z,65.49
2019-02-20T11:28:12.801Z,64.50
2019-02-20T11:30:39.519Z,64.12
2019-02-20T11:33:06.243Z,63.11
2019-02-20T11:35:32.970Z,62.74
2019-02-20T11:37:59.690Z,61.92
2019-02-20T11:40:26.449Z,60.83
2019-02-20T11:42:53.253Z,60.58
2019-02-20T11:45:26.936Z,60.41
2019-02-20T11:47:53.990Z,59.97
2019-02-20T11:50:20.733Z,59.19
2019-02-20T11:52:47.522Z,58.60
2019-02-20T11:55:14.517Z,57.72
2019-02-20T11:57:41.308Z,57.92
2019-02-20T12:00:11.654Z,57.67
2019-02-20T12:02:38.490Z,57.95
2019-02-20T12:05:05.242Z,56.39
2019-02-20T12:07:31.961Z,56.23
2019-02-20T12:09:59.278Z,54.24
2019-02-20T12:12:26.339Z,53.34
2019-02-20T12:14:53.056Z,53.44
2019-02-20T12:17:20.112Z,53.35
2019-02-20T12:19:47.369Z,53.12
2019-02-20T12:22:14.132Z,53.97
2019-02-20T12:24:40.846Z,52.72
2019-02-20T12:27:07.549Z,52.86
2019-02-20T12:29:36.756Z,52.70
2019-02-20T12:32:03.471Z,52.82
2019-02-20T12:34:30.173Z,52.03
2019-02-20T12:36:56.886Z,51.63
2019-02-20T12:39:23.587Z,51.34
2019-02-20T12:41:50.350Z,51.82
2019-02-20T12:44:18.165Z,51.13
2019-02-20T12:46:44.951Z,51.35
2019-02-20T12:49:11.581Z,51.51
2019-02-20T12:51:38.261Z,51.49
2019-02-20T12:54:04.980Z,52.22
2019-02-20T12:56:32.054Z,52.59
2019-02-20T12:59:07.457Z,52.54
2019-02-20T13:01:27.676Z,52.37
2019-02-20T13:03:54.382Z,52.48
2019-02-20T13:06:21.095Z,53.01
2019-02-20T13:08:47.764Z,53.59
2019-02-20T13:11:14.641Z,52.85
2019-02-20T13:13:41.392Z,52.22
2019-02-20T13:16:10.728Z,52.48
2019-02-20T13:18:37.514Z,52.57
2019-02-20T13:21:04.581Z,53.17
2019-02-20T13:23:31.321Z,53.23
2019-02-20T13:25:58.058Z,53.02
2019-02-20T13:28:24.808Z,52.44
2019-02-20T13:30:51.628Z,52.51
2019-02-20T13:33:21.902Z,52.49
2019-02-20T13:35:49.047Z,52.55
2019-02-20T13:38:16.381Z,52.61
2019-02-20T13:40:45.512Z,51.57
2019-02-20T13:43:12.216Z,51.59
2019-02-20T13:45:39.298Z,50.68
2019-02-20T13:48:06.664Z,50.55
2019-02-20T13:50:33.388Z,49.69
2019-02-20T13:53:02.052Z,49.00
2019-02-20T13:55:34.518Z,48.87
2019-02-20T13:57:57.910Z,49.23
2019-02-20T14:00:24.739Z,48.96
2019-02-20T14:02:51.476Z,49.37
2019-02-20T14:05:20.599Z,49.34
2019-02-20T14:07:47.316Z,49.72
2019-02-20T14:10:14.024Z,49.73
2019-02-20T14:12:41.008Z,49.89
2019-02-20T14:15:09.047Z,49.69
2019-02-20T14:17:36.405Z,49.65
2019-02-20T14:20:03.876Z,49.31
2019-02-20T14:22:31.715Z,49.13
2019-02-20T14:24:58.962Z,49.40
2019-02-20T14:27:25.675Z,49.17
2019-02-20T14:29:55.209Z,49.22
2019-02-20T14:32:23.526Z,48.74
2019-02-20T14:34:50.263Z,48.89
2019-02-20T14:37:17.118Z,48.83
2019-02-20T14:39:44.143Z,48.84
2019-02-20T14:42:12.199Z,48.76
2019-02-20T14:44:38.991Z,49.20
2019-02-20T14:47:05.718Z,49.97
2019-02-20T14:49:32.538Z,50.09
2019-02-20T14:51:59.373Z,50.54
2019-02-20T14:54:26.108Z,50.93
2019-02-20T14:56:52.826Z,51.00
2019-02-20T14:59:20.180Z,51.21
2019-02-20T15:01:47.419Z,51.30
2019-02-20T15:04:14.148Z,51.43
2019-02-20T15:06:40.936Z,51.27
2019-02-20T15:09:07.714Z,51.53
2019-02-20T15:11:37.292Z,51.01
2019-02-20T15:14:04.042Z,51.00
2019-02-20T15:16:32.461Z,50.69
2019-02-20T15:18:59.179Z,50.81
2019-02-20T15:21:26.304Z,50.76
2019-02-20T15:23:53.021Z,50.30
2019-02-20T15:26:20.648Z,50.84
2019-02-20T15:28:47.391Z,50.82
2019-02-20T15:31:14.675Z,51.12
2019-02-20T15:33:41.367Z,51.27
2019-02-20T15:36:08.115Z,51.29
2019-02-20T15:38:34.849Z,51.71
2019-02-20T15:41:01.765Z,52.18
2019-02-20T15:43:32.441Z,52.40
2019-02-20T15:45:59.468Z,52.60
2019-02-20T15:48:26.214Z,53.03
2019-02-20T15:50:53.157Z,52.99
2019-02-20T15:53:19.950Z,52.86
2019-02-20T15:55:46.695Z,52.88
2019-02-20T15:58:13.427Z,52.83
2019-02-20T16:00:42.110Z,53.24
2019-02-20T16:03:08.816Z,53.08
2019-02-20T16:05:35.530Z,52.92
2019-02-20T16:08:02.421Z,53.00
2019-02-20T16:10:29.379Z,52.97
2019-02-20T16:12:56.209Z,52.91
2019-02-20T16:15:24.282Z,52.84
2019-02-20T16:17:51.740Z,52.87
2019-02-20T16:20:20.226Z,53.33
2019-02-20T16:22:49.643Z,53.53
2019-02-20T16:25:16.634Z,53.88
2019-02-20T16:27:47.124Z,53.93
2019-02-20T16:30:12.425Z,53.87
2019-02-20T16:32:39.258Z,54.03
2019-02-20T16:35:07.754Z,54.13
2019-02-20T16:37:34.683Z,54.19
2019-02-20T16:40:05.825Z,54.35
2019-02-20T16:42:30.134Z,54.66
2019-02-20T16:44:56.794Z,54.76
2019-02-20T16:47:23.542Z,54.97
2019-02-20T16:49:50.271Z,55.27
2019-02-20T16:52:17.068Z,55.42
2019-02-20T16:54:44.268Z,55.54
2019-02-20T16:57:11.413Z,55.88
2019-02-20T16:59:40.774Z,56.19
2019-02-20T17:02:07.758Z,56.34
2019-02-20T17:04:34.480Z,56.57
2019-02-20T17:07:01.175Z,56.68
2019-02-20T17:09:27.879Z,57.00
2019-02-20T17:11:54.625Z,57.02
2019-02-20T17:14:21.615Z,57.17
2019-02-20T17:16:48.331Z,57.31
2019-02-20T17:19:15.095Z,57.36
2019-02-20T17:21:41.806Z,57.49
2019-02-20T17:24:08.566Z,57.63
2019-02-20T17:26:35.348Z,57.69
2019-02-20T17:29:02.056Z,57.96
2019-02-20T17:31:28.767Z,57.97
2019-02-20T17:33:55.941Z,57.93
2019-02-20T17:36:22.806Z,58.12
2019-02-20T17:38:49.752Z,58.30
2019-02-20T17:41:17.239Z,58.45
2019-02-20T17:43:51.057Z,58.67
2019-02-20T17:46:19.917Z,59.12
2019-02-20T17:48:47.358Z,59.49
2019-02-20T17:51:14.082Z,59.70
2019-02-20T17:53:40.961Z,59.87
2019-02-20T17:56:09.699Z,60.06
2019-02-20T17:58:36.448Z,60.13
2019-02-20T18:01:05.662Z,60.17
2019-02-20T18:03:32.538Z,60.33
2019-02-20T18:05:59.589Z,60.42
2019-02-20T18:08:26.367Z,60.39
2019-02-20T18:10:53.077Z,60.52
2019-02-20T18:13:20.180Z,60.89
2019-02-20T18:15:46.942Z,61.31
2019-02-20T18:18:13.797Z,61.54
2019-02-20T18:20:40.541Z,61.69
2019-02-20T18:23:07.259Z,62.01
2019-02-20T18:25:33.978Z,62.37
2019-02-20T18:28:00.797Z,62.55
2019-02-20T18:30:27.504Z,62.86
2019-02-20T18:32:54.615Z,62.78
2019-02-20T18:35:21.321Z,62.86
2019-02-20T18:37:48.041Z,62.98
2019-02-20T18:40:14.824Z,62.92
2019-02-20T18:42:41.641Z,62.88
2019-02-20T18:45:08.991Z,63.23
2019-02-20T18:47:35.734Z,63.68
2019-02-20T18:50:02.662Z,63.98
2019-02-20T18:52:29.599Z,63.82
2019-02-20T18:55:05.582Z,63.90
2019-02-20T18:57:25.088Z,64.15
2019-02-20T18:59:53.930Z,64.39
2019-02-20T19:02:20.736Z,64.46
2019-02-20T19:04:47.836Z,64.73
2019-02-20T19:07:14.596Z,64.90
2019-02-20T19:09:47.523Z,64.97
2019-02-20T19:12:36.710Z,64.63
2019-02-20T19:15:29.317Z,64.76
2019-02-20T19:18:33.052Z,64.86
2019-02-20T19:21:11.871Z,64.99
2019-02-20T19:24:29.907Z,65.21
2019-02-20T19:27:41.862Z,65.26
2019-02-20T19:30:41.518Z,65.50
2019-02-20T19:33:34.534Z,65.96
2019-02-20T19:36:30.299Z,66.38
2019-02-20T19:39:43.581Z,66.65
2019-02-20T19:42:43.832Z,66.80
2019-02-20T19:45:50.953Z,66.80
2019-02-20T19:49:02.994Z,67.01
2019-02-20T19:52:04.074Z,66.93
2019-02-20T19:54:42.181Z,67.68
2019-02-20T19:57:51.739Z,67.54
2019-02-20T20:01:01.973Z,67.66
2019-02-20T20:04:15.448Z,68.25
2019-02-20T20:06:53.543Z,68.05
2019-02-20T20:10:14.293Z,68.26
2019-02-20T20:13:12.357Z,68.66
2019-02-20T20:16:22.808Z,69.31
2019-02-20T20:19:27.429Z,69.45
2019-02-20T20:22:02.901Z,69.49
2019-02-20T20:25:39.600Z,69.61
2019-02-20T20:28:36.098Z,69.27
2019-02-20T20:31:30.495Z,69.21
2019-02-20T20:34:57.203Z,69.32
2019-02-20T20:37:36.128Z,69.56
2019-02-20T20:40:57.706Z,69.99
2019-02-20T20:43:51.566Z,69.84
2019-02-20T20:46:33.798Z,70.16
2019-02-20T20:49:16.789Z,70.61
2019-02-20T20:52:28.060Z,70.56
2019-02-20T20:55:55.210Z,70.53
2019-02-20T20:58:35.892Z,70.78
2019-02-20T21:01:32.213Z,71.04
2019-02-20T21:04:25.665Z,71.71
2019-02-20T21:07:21.684Z,71.57
2019-02-20T21:10:17.631Z,71.91
2019-02-20T21:13:38.229Z,71.57
2019-02-20T21:16:56.658Z,71.62
2019-02-20T21:20:00.766Z,71.46
2019-02-20T21:23:33.982Z,71.31
2019-02-20T21:27:07.044Z,71.36
2019-02-20T21:30:21.411Z,71.20
2019-02-20T21:33:23.845Z,71.19
2019-02-20T21:36:31.715Z,71.59
2019-02-20T21:39:52.321Z,71.93
2019-02-20T21:42:47.532Z,72.05
2019-02-20T21:45:42.187Z,71.87
2019-02-20T21:48:42.134Z,72.46
2019-02-20T21:51:29.734Z,73.30
2019-02-20T21:54:30.759Z,73.30
2019-02-20T21:57:12.261Z,73.12
2019-02-20T22:00:15.410Z,73.10
2019-02-20T22:03:25.683Z,72.57
2019-02-20T22:06:40.763Z,72.57
2019-02-20T22:09:41.758Z,72.90
2019-02-20T22:12:37.551Z,72.87
2019-02-20T22:15:40.373Z,72.46
2019-02-20T22:18:43.822Z,73.28
2019-02-20T22:21:47.431Z,73.96
2019-02-20T22:25:05.351Z,73.96
2019-02-20T22:27:56.372Z,73.19
2019-02-20T22:31:04.105Z,73.97
2019-02-20T22:34:02.453Z,73.94
2019-02-20T22:36:43.245Z,72.92
2019-02-20T22:39:42.232Z,73.28
2019-02-20T22:42:33.557Z,72.75
2019-02-20T22:45:46.309Z,72.75
2019-02-20T22:49:00.869Z,74.68
2019-02-20T22:51:53.188Z,74.68
2019-02-20T22:55:17.237Z,73.93
2019-02-20T22:58:41.115Z,73.88
2019-02-20T23:02:08.262Z,73.55
2019-02-20T23:05:03.033Z,73.66
2019-02-20T23:07:49.544Z,74.12
2019-02-20T23:59:35.706Z,74.26
